sensor_id;sensor_type;location;lat;lon;timestamp;pressure;altitude;pressure_sealevel;temperature;humidity
50302;BME280;36550;50.472;19.744;2022-09-27T00:00:19;96853.91;;;7.28;81.53
50302;BME280;36550;50.472;19.744;2022-09-27T00:03:04;96847.05;;;7.22;81.34
50302;BME280;36550;50.472;19.744;2022-09-27T00:05:48;96854.78;;;7.15;81.20
50302;BME280;36550;50.472;19.744;2022-09-27T00:08:33;96856.02;;;7.09;81.26
50302;BME280;36550;50.472;19.744;2022-09-27T00:11:31;96852.78;;;7.02;81.47
50302;BME280;36550;50.472;19.744;2022-09-27T00:14:19;96856.91;;;6.98;81.58
50302;BME280;36550;50.472;19.744;2022-09-27T00:17:03;96856.54;;;6.92;81.68
50302;BME280;36550;50.472;19.744;2022-09-27T00:19:47;96845.77;;;6.86;81.71
50302;BME280;36550;50.472;19.744;2022-09-27T00:22:32;96847.83;;;6.84;81.84
50302;BME280;36550;50.472;19.744;2022-09-27T00:25:16;96851.45;;;6.83;81.84
50302;BME280;36550;50.472;19.744;2022-09-27T00:28:01;96845.16;;;6.81;81.78
50302;BME280;36550;50.472;19.744;2022-09-27T00:30:45;96843.60;;;6.80;81.71
50302;BME280;36550;50.472;19.744;2022-09-27T00:33:29;96837.86;;;6.81;81.73
50302;BME280;36550;50.472;19.744;2022-09-27T00:36:14;96829.78;;;6.80;81.71
50302;BME280;36550;50.472;19.744;2022-09-27T00:38:59;96824.05;;;6.80;81.69
50302;BME280;36550;50.472;19.744;2022-09-27T00:41:44;96825.80;;;6.74;81.54
50302;BME280;36550;50.472;19.744;2022-09-27T00:48:14;96816.04;;;6.67;81.75
50302;BME280;36550;50.472;19.744;2022-09-27T00:53:21;96808.34;;;6.58;81.82
50302;BME280;36550;50.472;19.744;2022-09-27T00:56:08;96802.30;;;6.55;81.79
50302;BME280;36550;50.472;19.744;2022-09-27T00:58:57;96798.06;;;6.51;81.70
50302;BME280;36550;50.472;19.744;2022-09-27T01:01:44;96797.55;;;6.52;81.79
50302;BME280;36550;50.472;19.744;2022-09-27T01:04:29;96803.83;;;6.53;81.85
50302;BME280;36550;50.472;19.744;2022-09-27T01:07:15;96802.58;;;6.56;81.98
50302;BME280;36550;50.472;19.744;2022-09-27T01:09:59;96803.05;;;6.53;81.88
50302;BME280;36550;50.472;19.744;2022-09-27T01:15:59;96797.67;;;6.43;81.88
50302;BME280;36550;50.472;19.744;2022-09-27T01:19:08;96793.70;;;6.38;81.94
50302;BME280;36550;50.472;19.744;2022-09-27T01:37:45;96774.69;;;6.23;81.86
50302;BME280;36550;50.472;19.744;2022-09-27T01:40:49;96766.53;;;6.16;82.07
50302;BME280;36550;50.472;19.744;2022-09-27T01:44:02;96764.06;;;6.10;82.17
50302;BME280;36550;50.472;19.744;2022-09-27T01:46:55;96756.25;;;6.10;82.25
50302;BME280;36550;50.472;19.744;2022-09-27T01:49:48;96756.83;;;6.12;82.27
50302;BME280;36550;50.472;19.744;2022-09-27T01:52:56;96755.27;;;6.13;82.21
50302;BME280;36550;50.472;19.744;2022-09-27T01:55:43;96748.03;;;6.15;82.15
50302;BME280;36550;50.472;19.744;2022-09-27T01:58:39;96745.22;;;6.20;82.10
50302;BME280;36550;50.472;19.744;2022-09-27T02:01:28;96745.22;;;6.20;81.97
50302;BME280;36550;50.472;19.744;2022-09-27T02:04:19;96741.84;;;6.19;81.86
50302;BME280;36550;50.472;19.744;2022-09-27T02:07:11;96736.31;;;6.15;81.83
50302;BME280;36550;50.472;19.744;2022-09-27T02:10:02;96739.91;;;6.12;81.76
50302;BME280;36550;50.472;19.744;2022-09-27T02:12:55;96728.36;;;6.08;81.85
50302;BME280;36550;50.472;19.744;2022-09-27T02:15:51;96728.30;;;6.03;81.74
50302;BME280;36550;50.472;19.744;2022-09-27T02:22:41;96725.95;;;5.89;81.34
50302;BME280;36550;50.472;19.744;2022-09-27T02:25:04;96717.65;;;5.90;81.47
50302;BME280;36550;50.472;19.744;2022-09-27T02:28:21;96712.44;;;5.90;81.44
50302;BME280;36550;50.472;19.744;2022-09-27T02:31:20;96703.56;;;5.88;81.50
50302;BME280;36550;50.472;19.744;2022-09-27T02:34:15;96703.23;;;5.85;81.77
50302;BME280;36550;50.472;19.744;2022-09-27T02:37:00;96696.64;;;5.79;82.05
50302;BME280;36550;50.472;19.744;2022-09-27T02:39:44;96697.62;;;5.76;82.39
50302;BME280;36550;50.472;19.744;2022-09-27T02:42:28;96701.23;;;5.75;82.55
50302;BME280;36550;50.472;19.744;2022-09-27T02:45:15;96707.42;;;5.71;82.36
50302;BME280;36550;50.472;19.744;2022-09-27T02:54:52;96700.34;;;5.67;82.06
50302;BME280;36550;50.472;19.744;2022-09-27T03:01:23;96703.78;;;5.70;82.25
50302;BME280;36550;50.472;19.744;2022-09-27T03:04:28;96701.12;;;5.67;82.21
50302;BME280;36550;50.472;19.744;2022-09-27T03:07:15;96700.31;;;5.64;82.17
50302;BME280;36550;50.472;19.744;2022-09-27T03:10:00;96688.77;;;5.60;82.11
50302;BME280;36550;50.472;19.744;2022-09-27T03:12:45;96683.47;;;5.55;81.98
50302;BME280;36550;50.472;19.744;2022-09-27T03:15:29;96677.97;;;5.51;81.83
50302;BME280;36550;50.472;19.744;2022-09-27T03:18:14;96677.22;;;5.53;81.82
50302;BME280;36550;50.472;19.744;2022-09-27T03:20:58;96671.47;;;5.51;81.68
50302;BME280;36550;50.472;19.744;2022-09-27T03:23:43;96669.91;;;5.53;81.71
50302;BME280;36550;50.472;19.744;2022-09-27T03:26:27;96671.20;;;5.53;81.76
50302;BME280;36550;50.472;19.744;2022-09-27T03:29:11;96668.58;;;5.50;81.88
50302;BME280;36550;50.472;19.744;2022-09-27T03:31:56;96667.96;;;5.46;81.93
50302;BME280;36550;50.472;19.744;2022-09-27T03:34:40;96668.68;;;5.41;81.94
50302;BME280;36550;50.472;19.744;2022-09-27T03:37:24;96668.68;;;5.41;82.08
50302;BME280;36550;50.472;19.744;2022-09-27T03:40:10;96664.26;;;5.42;82.16
50302;BME280;36550;50.472;19.744;2022-09-27T03:42:55;96659.44;;;5.48;82.30
50302;BME280;36550;50.472;19.744;2022-09-27T03:45:39;96660.11;;;5.57;82.49
50302;BME280;36550;50.472;19.744;2022-09-27T03:48:27;96657.36;;;5.64;82.56
50302;BME280;36550;50.472;19.744;2022-09-27T03:51:13;96661.88;;;5.71;82.53
50302;BME280;36550;50.472;19.744;2022-09-27T03:53:57;96654.97;;;5.77;82.56
50302;BME280;36550;50.472;19.744;2022-09-27T03:56:41;96649.47;;;5.76;82.52
50302;BME280;36550;50.472;19.744;2022-09-27T03:59:26;96649.67;;;5.72;82.54
50302;BME280;36550;50.472;19.744;2022-09-27T04:02:10;96644.95;;;5.71;82.70
50302;BME280;36550;50.472;19.744;2022-09-27T04:04:54;96639.44;;;5.68;82.62
50302;BME280;36550;50.472;19.744;2022-09-27T04:07:38;96641.31;;;5.70;82.71
50302;BME280;36550;50.472;19.744;2022-09-27T04:10:23;96637.98;;;5.74;82.80
50302;BME280;36550;50.472;19.744;2022-09-27T04:13:07;96643.19;;;5.74;82.69
50302;BME280;36550;50.472;19.744;2022-09-27T04:15:51;96644.73;;;5.73;82.49
50302;BME280;36550;50.472;19.744;2022-09-27T04:18:36;96648.55;;;5.68;82.37
50302;BME280;36550;50.472;19.744;2022-09-27T04:21:20;96638.34;;;5.64;82.48
50302;BME280;36550;50.472;19.744;2022-09-27T04:24:05;96630.73;;;5.59;82.57
50302;BME280;36550;50.472;19.744;2022-09-27T04:26:50;96634.84;;;5.55;82.55
50302;BME280;36550;50.472;19.744;2022-09-27T04:29:34;96635.27;;;5.50;82.45
50302;BME280;36550;50.472;19.744;2022-09-27T04:32:18;96629.91;;;5.42;82.27
50302;BME280;36550;50.472;19.744;2022-09-27T04:35:03;96634.50;;;5.35;82.18
50302;BME280;36550;50.472;19.744;2022-09-27T04:38:06;96636.03;;;5.33;82.17
50302;BME280;36550;50.472;19.744;2022-09-27T04:40:50;96633.20;;;5.35;82.16
50302;BME280;36550;50.472;19.744;2022-09-27T04:43:34;96632.45;;;5.37;82.07
50302;BME280;36550;50.472;19.744;2022-09-27T04:46:20;96634.77;;;5.36;81.92
50302;BME280;36550;50.472;19.744;2022-09-27T04:49:04;96639.13;;;5.33;81.87
50302;BME280;36550;50.472;19.744;2022-09-27T04:51:49;96647.68;;;5.31;81.91
50302;BME280;36550;50.472;19.744;2022-09-27T04:54:33;96646.15;;;5.32;82.00
50302;BME280;36550;50.472;19.744;2022-09-27T04:57:17;96642.45;;;5.28;81.92
50302;BME280;36550;50.472;19.744;2022-09-27T05:00:03;96639.30;;;5.26;81.96
50302;BME280;36550;50.472;19.744;2022-09-27T05:02:48;96643.97;;;5.27;81.97
50302;BME280;36550;50.472;19.744;2022-09-27T05:05:32;96638.08;;;5.31;81.93
50302;BME280;36550;50.472;19.744;2022-09-27T05:08:16;96628.58;;;5.39;82.09
50302;BME280;36550;50.472;19.744;2022-09-27T05:11:00;96632.12;;;5.48;81.92
50302;BME280;36550;50.472;19.744;2022-09-27T05:13:45;96622.28;;;5.52;81.95
50302;BME280;36550;50.472;19.744;2022-09-27T05:16:29;96621.33;;;5.58;82.16
50302;BME280;36550;50.472;19.744;2022-09-27T05:19:13;96614.70;;;5.68;82.38
50302;BME280;36550;50.472;19.744;2022-09-27T05:21:57;96618.88;;;5.66;82.24
50302;BME280;36550;50.472;19.744;2022-09-27T05:24:42;96619.36;;;5.66;82.08
50302;BME280;36550;50.472;19.744;2022-09-27T05:27:26;96617.31;;;5.68;82.14
50302;BME280;36550;50.472;19.744;2022-09-27T05:30:10;96618.47;;;5.74;82.19
50302;BME280;36550;50.472;19.744;2022-09-27T05:32:54;96619.38;;;5.83;82.21
50302;BME280;36550;50.472;19.744;2022-09-27T05:35:39;96609.87;;;5.93;82.37
50302;BME280;36550;50.472;19.744;2022-09-27T05:38:24;96615.27;;;6.04;82.40
50302;BME280;36550;50.472;19.744;2022-09-27T05:41:09;96619.09;;;6.15;82.44
50302;BME280;36550;50.472;19.744;2022-09-27T05:43:53;96611.14;;;6.25;82.96
50302;BME280;36550;50.472;19.744;2022-09-27T05:46:38;96606.83;;;6.35;82.98
50302;BME280;36550;50.472;19.744;2022-09-27T05:49:22;96608.02;;;6.45;83.07
50302;BME280;36550;50.472;19.744;2022-09-27T05:52:06;96610.42;;;6.51;83.31
50302;BME280;36550;50.472;19.744;2022-09-27T05:54:51;96609.27;;;6.64;83.56
50302;BME280;36550;50.472;19.744;2022-09-27T05:57:35;96605.54;;;6.80;83.70
50302;BME280;36550;50.472;19.744;2022-09-27T06:00:19;96606.77;;;6.99;83.93
50302;BME280;36550;50.472;19.744;2022-09-27T06:03:05;96605.66;;;7.20;83.96
50302;BME280;36550;50.472;19.744;2022-09-27T06:05:50;96607.16;;;7.40;84.26
50302;BME280;36550;50.472;19.744;2022-09-27T06:08:36;96605.24;;;7.60;84.53
50302;BME280;36550;50.472;19.744;2022-09-27T06:11:21;96602.73;;;7.78;84.68
50302;BME280;36550;50.472;19.744;2022-09-27T06:14:06;96612.04;;;7.99;84.90
50302;BME280;36550;50.472;19.744;2022-09-27T06:28:52;96599.70;;;10.02;84.54
50302;BME280;36550;50.472;19.744;2022-09-27T06:31:37;96607.79;;;10.19;84.17
50302;BME280;36550;50.472;19.744;2022-09-27T06:34:23;96608.80;;;10.38;84.03
50302;BME280;36550;50.472;19.744;2022-09-27T06:37:07;96601.67;;;10.54;84.03
50302;BME280;36550;50.472;19.744;2022-09-27T06:39:52;96589.83;;;10.65;83.85
50302;BME280;36550;50.472;19.744;2022-09-27T06:42:36;96591.09;;;10.77;83.79
50302;BME280;36550;50.472;19.744;2022-09-27T06:45:21;96593.35;;;10.94;83.64
50302;BME280;36550;50.472;19.744;2022-09-27T06:48:08;96587.25;;;11.07;83.49
50302;BME280;36550;50.472;19.744;2022-09-27T06:50:55;96581.89;;;11.25;83.49
50302;BME280;36550;50.472;19.744;2022-09-27T06:53:40;96585.67;;;11.43;83.44
50302;BME280;36550;50.472;19.744;2022-09-27T06:56:24;96594.50;;;11.57;83.32
50302;BME280;36550;50.472;19.744;2022-09-27T06:59:08;96592.27;;;11.74;83.39
50302;BME280;36550;50.472;19.744;2022-09-27T07:02:11;96592.65;;;11.92;83.30
50302;BME280;36550;50.472;19.744;2022-09-27T07:04:57;96588.27;;;12.11;83.21
50302;BME280;36550;50.472;19.744;2022-09-27T07:07:41;96589.89;;;12.31;83.05
50302;BME280;36550;50.472;19.744;2022-09-27T07:10:29;96588.34;;;12.52;82.92
50302;BME280;36550;50.472;19.744;2022-09-27T07:13:16;96586.25;;;12.73;82.84
50302;BME280;36550;50.472;19.744;2022-09-27T07:16:01;96588.89;;;12.92;82.59
50302;BME280;36550;50.472;19.744;2022-09-27T07:18:47;96594.87;;;12.98;81.98
50302;BME280;36550;50.472;19.744;2022-09-27T07:21:32;96591.78;;;13.12;82.25
50302;BME280;36550;50.472;19.744;2022-09-27T07:24:17;96593.91;;;13.29;82.24
50302;BME280;36550;50.472;19.744;2022-09-27T07:27:01;96598.94;;;13.47;82.21
50302;BME280;36550;50.472;19.744;2022-09-27T07:29:45;96596.80;;;13.65;81.79
50302;BME280;36550;50.472;19.744;2022-09-27T07:32:29;96593.09;;;13.83;81.74
50302;BME280;36550;50.472;19.744;2022-09-27T07:35:13;96587.95;;;14.05;81.84
50302;BME280;36550;50.472;19.744;2022-09-27T07:37:58;96584.91;;;14.29;81.88
50302;BME280;36550;50.472;19.744;2022-09-27T07:40:42;96583.12;;;14.52;81.73
50302;BME280;36550;50.472;19.744;2022-09-27T07:43:27;96581.66;;;14.73;81.44
50302;BME280;36550;50.472;19.744;2022-09-27T07:46:11;96575.88;;;14.96;81.02
50302;BME280;36550;50.472;19.744;2022-09-27T07:48:55;96579.64;;;15.18;80.68
50302;BME280;36550;50.472;19.744;2022-09-27T07:51:40;96580.19;;;15.40;80.67
50302;BME280;36550;50.472;19.744;2022-09-27T07:54:24;96571.61;;;15.57;79.73
50302;BME280;36550;50.472;19.744;2022-09-27T07:57:09;96571.69;;;15.77;79.47
50302;BME280;36550;50.472;19.744;2022-09-27T07:59:53;96571.50;;;15.93;79.30
50302;BME280;36550;50.472;19.744;2022-09-27T08:02:37;96570.02;;;16.10;78.56
50302;BME280;36550;50.472;19.744;2022-09-27T08:17:04;96563.65;;;16.97;70.74
50302;BME280;36550;50.472;19.744;2022-09-27T08:19:49;96555.95;;;16.98;71.81
50302;BME280;36550;50.472;19.744;2022-09-27T08:22:41;96555.86;;;17.01;71.80
50302;BME280;36550;50.472;19.744;2022-09-27T08:25:26;96556.47;;;16.98;70.68
50302;BME280;36550;50.472;19.744;2022-09-27T08:28:12;96559.36;;;16.90;70.06
50302;BME280;36550;50.472;19.744;2022-09-27T08:30:57;96556.75;;;16.79;68.92
50302;BME280;36550;50.472;19.744;2022-09-27T08:33:49;96551.52;;;16.67;69.05
50302;BME280;36550;50.472;19.744;2022-09-27T08:36:34;96548.56;;;16.69;69.70
50302;BME280;36550;50.472;19.744;2022-09-27T08:39:20;96543.48;;;16.70;69.83
50302;BME280;36550;50.472;19.744;2022-09-27T08:42:24;96542.16;;;16.70;69.45
50302;BME280;36550;50.472;19.744;2022-09-27T08:48:08;96530.05;;;16.86;69.33
50302;BME280;36550;50.472;19.744;2022-09-27T08:50:54;96524.05;;;16.92;68.92
50302;BME280;36550;50.472;19.744;2022-09-27T08:53:45;96528.88;;;16.90;67.36
50302;BME280;36550;50.472;19.744;2022-09-27T08:56:36;96534.48;;;16.80;65.18
50302;BME280;36550;50.472;19.744;2022-09-27T08:59:26;96535.93;;;16.66;63.24
50302;BME280;36550;50.472;19.744;2022-09-27T09:02:18;96533.83;;;16.65;64.56
50302;BME280;36550;50.472;19.744;2022-09-27T09:05:09;96530.00;;;16.60;63.62
50302;BME280;36550;50.472;19.744;2022-09-27T09:15:43;96532.05;;;16.63;65.37
50302;BME280;36550;50.472;19.744;2022-09-27T09:18:59;96524.63;;;16.54;64.84
50302;BME280;36550;50.472;19.744;2022-09-27T09:22:04;96526.01;;;16.51;65.46
50302;BME280;36550;50.472;19.744;2022-09-27T09:24:55;96523.99;;;16.57;66.51
50302;BME280;36550;50.472;19.744;2022-09-27T09:31:26;96522.05;;;16.60;65.16
50302;BME280;36550;50.472;19.744;2022-09-27T09:34:04;96521.89;;;16.57;65.25
50302;BME280;36550;50.472;19.744;2022-09-27T09:36:53;96508.51;;;16.62;65.12
50302;BME280;36550;50.472;19.744;2022-09-27T09:39:48;96508.42;;;16.64;65.23
50302;BME280;36550;50.472;19.744;2022-09-27T09:42:53;96495.58;;;16.69;65.33
50302;BME280;36550;50.472;19.744;2022-09-27T09:45:48;96494.78;;;16.68;65.12
50302;BME280;36550;50.472;19.744;2022-09-27T09:48:40;96484.36;;;16.63;64.37
50302;BME280;36550;50.472;19.744;2022-09-27T09:51:37;96483.73;;;16.58;64.94
50302;BME280;36550;50.472;19.744;2022-09-27T09:54:35;96484.58;;;16.47;64.30
50302;BME280;36550;50.472;19.744;2022-09-27T09:57:32;96483.87;;;16.44;64.16
50302;BME280;36550;50.472;19.744;2022-09-27T10:00:20;96480.67;;;16.44;63.91
50302;BME280;36550;50.472;19.744;2022-09-27T10:03:05;96475.38;;;16.44;62.12
50302;BME280;36550;50.472;19.744;2022-09-27T10:05:49;96469.23;;;16.38;61.05
50302;BME280;36550;50.472;19.744;2022-09-27T10:08:33;96454.74;;;16.44;62.42
50302;BME280;36550;50.472;19.744;2022-09-27T10:14:10;96450.47;;;16.71;64.42
50302;BME280;36550;50.472;19.744;2022-09-27T10:16:58;96440.80;;;16.75;63.72
50302;BME280;36550;50.472;19.744;2022-09-27T10:19:45;96447.76;;;16.83;64.26
50302;BME280;36550;50.472;19.744;2022-09-27T10:22:42;96439.71;;;16.94;64.38
50302;BME280;36550;50.472;19.744;2022-09-27T10:25:44;96436.99;;;17.05;63.90
50302;BME280;36550;50.472;19.744;2022-09-27T10:28:37;96435.73;;;17.11;63.34
50302;BME280;36550;50.472;19.744;2022-09-27T10:31:22;96430.41;;;17.20;63.02
50302;BME280;36550;50.472;19.744;2022-09-27T10:34:15;96425.93;;;17.27;62.62
50302;BME280;36550;50.472;19.744;2022-09-27T10:37:17;96422.48;;;17.35;62.50
50302;BME280;36550;50.472;19.744;2022-09-27T10:40:15;96425.19;;;17.41;62.19
50302;BME280;36550;50.472;19.744;2022-09-27T10:43:23;96426.97;;;17.43;60.17
50302;BME280;36550;50.472;19.744;2022-09-27T10:46:12;96407.89;;;17.59;60.63
50302;BME280;36550;50.472;19.744;2022-09-27T10:49:25;96416.59;;;17.68;60.35
50302;BME280;36550;50.472;19.744;2022-09-27T10:52:23;96407.13;;;17.73;59.45
50302;BME280;36550;50.472;19.744;2022-09-27T10:55:19;96402.21;;;17.84;60.14
50302;BME280;36550;50.472;19.744;2022-09-27T10:58:03;96407.61;;;17.90;57.35
50302;BME280;36550;50.472;19.744;2022-09-27T11:00:59;96409.64;;;17.84;55.62
50302;BME280;36550;50.472;19.744;2022-09-27T11:03:54;96402.02;;;17.98;57.43
50302;BME280;36550;50.472;19.744;2022-09-27T11:06:40;96404.97;;;18.11;57.43
50302;BME280;36550;50.472;19.744;2022-09-27T11:09:25;96398.42;;;18.23;58.37
50302;BME280;36550;50.472;19.744;2022-09-27T11:12:11;96397.46;;;18.28;57.37
50302;BME280;36550;50.472;19.744;2022-09-27T11:15:02;96400.54;;;18.09;54.75
50302;BME280;36550;50.472;19.744;2022-09-27T11:18:04;96402.72;;;18.01;56.68
50302;BME280;36550;50.472;19.744;2022-09-27T11:20:52;96399.50;;;18.01;56.94
50302;BME280;36550;50.472;19.744;2022-09-27T11:36:27;96387.11;;;18.20;56.92
50302;BME280;36550;50.472;19.744;2022-09-27T11:59:02;96371.56;;;18.52;54.43
50302;BME280;36550;50.472;19.744;2022-09-27T12:02:34;96362.16;;;18.55;55.28
50302;BME280;36550;50.472;19.744;2022-09-27T12:05:37;96362.34;;;18.43;54.28
50302;BME280;36550;50.472;19.744;2022-09-27T12:08:57;96360.05;;;18.27;54.69
50302;BME280;36550;50.472;19.744;2022-09-27T12:17:33;96362.71;;;18.06;56.75
50302;BME280;36550;50.472;19.744;2022-09-27T12:20:26;96365.72;;;17.81;54.90
50302;BME280;36550;50.472;19.744;2022-09-27T12:23:25;96357.39;;;17.46;56.09
50302;BME280;36550;50.472;19.744;2022-09-27T12:26:26;96352.98;;;17.21;56.75
50302;BME280;36550;50.472;19.744;2022-09-27T12:29:30;96349.77;;;17.21;57.49
50302;BME280;36550;50.472;19.744;2022-09-27T12:32:36;96349.34;;;17.10;57.31
50302;BME280;36550;50.472;19.744;2022-09-27T12:35:29;96349.91;;;17.01;58.94
50302;BME280;36550;50.472;19.744;2022-09-27T12:41:26;96345.56;;;17.05;59.70
50302;BME280;36550;50.472;19.744;2022-09-27T12:44:14;96339.29;;;17.10;60.36
50302;BME280;36550;50.472;19.744;2022-09-27T12:47:04;96338.85;;;17.23;60.18
50302;BME280;36550;50.472;19.744;2022-09-27T12:50:06;96339.83;;;17.33;59.77
50302;BME280;36550;50.472;19.744;2022-09-27T12:52:53;96339.73;;;17.36;58.12
50302;BME280;36550;50.472;19.744;2022-09-27T13:02:36;96331.11;;;17.62;59.13
50302;BME280;36550;50.472;19.744;2022-09-27T13:05:57;96325.95;;;17.51;58.77
50302;BME280;36550;50.472;19.744;2022-09-27T13:12:05;96316.98;;;17.35;59.12
50302;BME280;36550;50.472;19.744;2022-09-27T13:15:05;96311.44;;;17.34;59.87
50302;BME280;36550;50.472;19.744;2022-09-27T13:17:53;96306.77;;;17.30;59.63
50302;BME280;36550;50.472;19.744;2022-09-27T13:20:41;96309.06;;;17.41;59.95
50302;BME280;36550;50.472;19.744;2022-09-27T13:26:44;96298.48;;;17.47;59.34
50302;BME280;36550;50.472;19.744;2022-09-27T13:29:31;96298.03;;;17.45;59.47
50302;BME280;36550;50.472;19.744;2022-09-27T13:32:21;96298.09;;;17.51;59.73
50302;BME280;36550;50.472;19.744;2022-09-27T13:35:18;96293.84;;;17.44;59.78
50302;BME280;36550;50.472;19.744;2022-09-27T13:38:03;96288.47;;;17.53;60.83
50302;BME280;36550;50.472;19.744;2022-09-27T13:40:48;96285.48;;;17.69;61.03
50302;BME280;36550;50.472;19.744;2022-09-27T13:43:40;96285.48;;;17.69;61.03
50302;BME280;36550;50.472;19.744;2022-09-27T13:46:52;96289.25;;;17.68;60.87
50302;BME280;36550;50.472;19.744;2022-09-27T13:49:45;96291.53;;;17.63;60.74
50302;BME280;36550;50.472;19.744;2022-09-27T13:52:36;96290.25;;;17.55;60.66
50302;BME280;36550;50.472;19.744;2022-09-27T13:55:48;96283.57;;;17.63;61.25
50302;BME280;36550;50.472;19.744;2022-09-27T13:58:45;96283.41;;;17.75;61.58
50302;BME280;36550;50.472;19.744;2022-09-27T14:01:45;96274.31;;;17.84;61.51
50302;BME280;36550;50.472;19.744;2022-09-27T14:04:41;96276.80;;;17.89;61.34
50302;BME280;36550;50.472;19.744;2022-09-27T14:07:36;96277.25;;;17.92;61.16
50302;BME280;36550;50.472;19.744;2022-09-27T14:10:23;96275.47;;;17.89;60.99
50302;BME280;36550;50.472;19.744;2022-09-27T14:13:10;96277.84;;;17.82;60.67
50302;BME280;36550;50.472;19.744;2022-09-27T14:15:59;96272.66;;;17.71;60.88
50302;BME280;36550;50.472;19.744;2022-09-27T14:18:54;96276.22;;;17.54;60.68
50302;BME280;36550;50.472;19.744;2022-09-27T14:21:42;96272.50;;;17.40;61.44
50302;BME280;36550;50.472;19.744;2022-09-27T14:27:24;96275.19;;;17.17;61.77
50302;BME280;36550;50.472;19.744;2022-09-27T14:30:16;96271.88;;;17.05;62.18
50302;BME280;36550;50.472;19.744;2022-09-27T14:33:03;96273.88;;;16.93;62.78
50302;BME280;36550;50.472;19.744;2022-09-27T14:35:48;96267.84;;;16.84;63.26
50302;BME280;36550;50.472;19.744;2022-09-27T14:38:51;96264.56;;;16.78;63.67
50302;BME280;36550;50.472;19.744;2022-09-27T14:41:36;96255.31;;;16.69;64.10
50302;BME280;36550;50.472;19.744;2022-09-27T14:44:20;96256.75;;;16.58;64.26
50302;BME280;36550;50.472;19.744;2022-09-27T14:47:22;96266.73;;;16.52;64.61
50302;BME280;36550;50.472;19.744;2022-09-27T14:50:16;96276.02;;;16.44;65.46
50302;BME280;36550;50.472;19.744;2022-09-27T14:53:20;96276.89;;;16.24;67.50
50302;BME280;36550;50.472;19.744;2022-09-27T14:56:06;96285.62;;;15.98;68.93
50302;BME280;36550;50.472;19.744;2022-09-27T14:59:01;96300.48;;;15.80;69.69
50302;BME280;36550;50.472;19.744;2022-09-27T15:01:49;96332.56;;;15.67;70.81
50302;BME280;36550;50.472;19.744;2022-09-27T15:04:34;96358.81;;;15.14;74.97
50302;BME280;36550;50.472;19.744;2022-09-27T15:07:19;96339.81;;;14.02;78.16
50302;BME280;36550;50.472;19.744;2022-09-27T15:10:05;96330.89;;;13.06;79.72
50302;BME280;36550;50.472;19.744;2022-09-27T15:12:53;96315.95;;;12.55;82.38
50302;BME280;36550;50.472;19.744;2022-09-27T15:15:40;96313.92;;;12.32;82.78
50302;BME280;36550;50.472;19.744;2022-09-27T15:21:34;96305.51;;;12.17;86.35
50302;BME280;36550;50.472;19.744;2022-09-27T15:24:42;96306.55;;;12.18;85.59
50302;BME280;36550;50.472;19.744;2022-09-27T15:27:28;96314.66;;;12.19;86.39
50302;BME280;36550;50.472;19.744;2022-09-27T15:30:18;96322.20;;;12.26;85.11
50302;BME280;36550;50.472;19.744;2022-09-27T15:33:07;96325.77;;;12.32;85.62
50302;BME280;36550;50.472;19.744;2022-09-27T15:36:05;96322.28;;;12.37;86.02
50302;BME280;36550;50.472;19.744;2022-09-27T15:39:04;96325.08;;;12.43;84.69
50302;BME280;36550;50.472;19.744;2022-09-27T15:44:54;96330.23;;;12.51;86.36
50302;BME280;36550;50.472;19.744;2022-09-27T15:47:44;96328.38;;;12.51;87.28
50302;BME280;36550;50.472;19.744;2022-09-27T15:50:32;96327.14;;;12.46;87.32
50302;BME280;36550;50.472;19.744;2022-09-27T15:56:21;96335.30;;;12.47;87.47
50302;BME280;36550;50.472;19.744;2022-09-27T15:59:25;96338.41;;;12.49;87.37
50302;BME280;36550;50.472;19.744;2022-09-27T16:02:15;96336.27;;;12.51;87.43
50302;BME280;36550;50.472;19.744;2022-09-27T16:05:00;96329.63;;;12.57;87.51
50302;BME280;36550;50.472;19.744;2022-09-27T16:07:45;96327.70;;;12.60;87.26
50302;BME280;36550;50.472;19.744;2022-09-27T16:10:35;96331.52;;;12.67;85.84
50302;BME280;36550;50.472;19.744;2022-09-27T16:13:21;96334.36;;;12.71;85.29
50302;BME280;36550;50.472;19.744;2022-09-27T16:16:07;96331.58;;;12.65;85.82
50302;BME280;36550;50.472;19.744;2022-09-27T16:18:53;96329.83;;;12.60;85.63
50302;BME280;36550;50.472;19.744;2022-09-27T16:21:38;96331.02;;;12.51;85.62
50302;BME280;36550;50.472;19.744;2022-09-27T16:24:24;96334.48;;;12.47;85.53
50302;BME280;36550;50.472;19.744;2022-09-27T16:27:10;96336.70;;;12.40;85.41
50302;BME280;36550;50.472;19.744;2022-09-27T16:29:54;96348.59;;;12.37;85.23
50302;BME280;36550;50.472;19.744;2022-09-27T16:32:46;96349.98;;;12.32;85.00
50302;BME280;36550;50.472;19.744;2022-09-27T16:35:30;96347.20;;;12.23;84.79
50302;BME280;36550;50.472;19.744;2022-09-27T16:38:15;96351.25;;;12.18;84.23
50302;BME280;36550;50.472;19.744;2022-09-27T16:41:00;96350.84;;;12.08;84.87
50302;BME280;36550;50.472;19.744;2022-09-27T16:43:46;96355.44;;;12.00;84.51
50302;BME280;36550;50.472;19.744;2022-09-27T16:46:30;96357.59;;;11.96;84.21
50302;BME280;36550;50.472;19.744;2022-09-27T16:49:16;96357.36;;;11.94;84.07
50302;BME280;36550;50.472;19.744;2022-09-27T16:52:18;96364.14;;;11.98;83.87
50302;BME280;36550;50.472;19.744;2022-09-27T16:55:03;96362.50;;;12.02;83.72
50302;BME280;36550;50.472;19.744;2022-09-27T16:57:50;96372.97;;;12.05;83.52
50302;BME280;36550;50.472;19.744;2022-09-27T17:00:34;96378.50;;;12.06;83.66
50302;BME280;36550;50.472;19.744;2022-09-27T17:03:18;96379.59;;;12.02;83.72
50302;BME280;36550;50.472;19.744;2022-09-27T17:06:02;96375.97;;;11.98;83.52
50302;BME280;36550;50.472;19.744;2022-09-27T17:08:46;96382.22;;;12.02;83.40
50302;BME280;36550;50.472;19.744;2022-09-27T17:11:31;96397.18;;;12.04;83.74
50302;BME280;36550;50.472;19.744;2022-09-27T17:14:16;96393.50;;;12.05;83.44